Time;durP1;ratioP1;P1;durP2;ratioP2;P2;SDS_P1;SDS_P2;PMS_P1;PMS_P2;Temp;Humidity;BMP_temperature;BMP_pressure;BME280_temperature;BME280_humidity;BME280_pressure;Samples;Min_cycle;Max_cycle;Signal;HPM_P1;HPM_P2
2021/07/10 00:01:20;;;;;;;7.68;5.30;;;;;;;22.54;72.18;100303.06;3610766;39;20068;-72
2021/07/10 00:03:45;;;;;;;9.93;5.05;;;;;;;22.74;70.87;100304.25;3611967;40;20318;-71
2021/07/10 00:06:15;;;;;;;11.05;4.85;;;;;;;22.36;72.36;100296.63;3611855;40;20030;-70
2021/07/10 00:08:44;;;;;;;7.25;4.85;;;;;;;22.69;71.22;100293.38;3602258;40;20093;-71
2021/07/10 00:11:10;;;;;;;7.55;4.75;;;;;;;22.47;71.11;100288.88;3611721;39;20028;-71
2021/07/10 00:13:36;;;;;;;5.63;4.18;;;;;;;22.59;71.54;100282.03;3611616;40;20035;-72
2021/07/10 00:16:03;;;;;;;7.15;4.70;;;;;;;22.77;71.06;100272.91;3611775;40;20081;-71
2021/07/10 00:18:31;;;;;;;7.88;4.60;;;;;;;22.54;71.77;100277.13;3602988;40;20064;-72
2021/07/10 00:26:11;;;;;;;6.88;4.88;;;;;;;22.19;73.83;100277.09;3714808;22;20175;-74
2021/07/10 00:29:02;;;;;;;6.43;4.35;;;;;;;22.12;71.49;100267.28;3688313;22;20438;-73
2021/07/10 00:59:20;;;;;;;6.07;4.57;;;;;;;21.96;72.99;100254.56;3694534;22;21041;-71
2021/07/10 01:02:10;;;;;;;8.52;4.85;;;;;;;21.32;74.99;100268.50;3806957;22;20073;-85
2021/07/10 01:22:48;;;;;;;11.38;7.28;;;;;;;21.20;77.63;100229.69;3833645;22;20316;-73
2021/07/10 01:30:15;;;;;;;8.18;6.55;;;;;;;21.10;75.06;100228.66;1286242;22;20296;-73
2021/07/10 01:43:26;;;;;;;11.80;6.00;;;;;;;20.94;75.20;100208.13;3743166;22;20540;-71
2021/07/10 02:06:16;;;;;;;8.65;4.95;;;;;;;21.65;73.72;100182.53;3773856;22;20132;-76
2021/07/10 02:11:25;;;;;;;7.15;4.75;;;;;;;21.47;72.77;100192.41;3802142;22;20077;-72
2021/07/10 02:27:03;;;;;;;8.48;5.00;;;;;;;21.36;74.48;100175.97;3776008;22;20098;-70
2021/07/10 02:34:35;;;;;;;9.10;5.32;;;;;;;20.91;76.08;100179.09;3865976;22;20608;-72
2021/07/10 02:39:30;;;;;;;12.07;6.40;;;;;;;21.37;75.74;100177.66;1288157;22;20288;-72
2021/07/10 02:44:46;;;;;;;11.20;6.53;;;;;;;21.15;74.90;100178.31;1509408;22;20262;-73
2021/07/10 02:50:27;;;;;;;14.80;7.57;;;;;;;21.37;73.32;100180.25;3754338;22;20098;-70
2021/07/10 02:57:52;;;;;;;11.90;7.18;;;;;;;20.96;75.44;100175.25;3613189;39;20552;-71
2021/07/10 03:02:50;;;;;;;18.67;7.63;;;;;;;20.92;75.15;100176.38;3719750;22;20073;-71
2021/07/10 03:08:06;;;;;;;14.50;9.10;;;;;;;20.51;75.96;100181.75;3692058;22;20081;-71
2021/07/10 03:32:54;;;;;;;16.38;7.18;;;;;;;20.20;78.36;100179.50;1431666;22;20289;-71
2021/07/10 03:35:20;;;;;;;12.30;6.53;;;;;;;20.21;78.76;100190.63;3784633;22;20406;-72
2021/07/10 03:37:58;;;;;;;10.10;6.53;;;;;;;20.43;77.54;100190.91;3601566;40;20028;-73
2021/07/10 03:58:01;;;;;;;8.90;7.60;;;;;;;18.83;86.04;100193.97;3649643;22;20054;31
2021/07/10 04:06:32;;;;;;;11.57;7.22;;;;;;;20.82;78.14;100190.06;1433263;22;21028;-74
2021/07/10 04:26:40;;;;;;;11.13;7.60;;;;;;;20.47;82.11;100180.28;3722711;22;20036;-72
2021/07/10 04:34:04;;;;;;;23.23;9.05;;;;;;;21.34;79.09;100185.59;2158702;22;20031;-72
2021/07/10 04:37:02;;;;;;;9.35;7.60;;;;;;;21.42;77.49;100185.91;3690330;22;20040;-72
2021/07/10 04:42:21;;;;;;;9.15;7.78;;;;;;;21.20;78.65;100188.31;3644910;22;20039;-72
2021/07/10 04:52:45;;;;;;;9.82;7.18;;;;;;;22.12;75.35;100189.56;3833972;22;20266;31
2021/07/10 05:00:14;;;;;;;14.10;7.70;;;;;;;22.27;75.84;100188.44;1367903;22;20168;-71
2021/07/10 05:02:47;;;;;;;12.98;7.13;;;;;;;23.55;72.05;100183.84;3712142;22;20091;-73
2021/07/10 05:05:16;;;;;;;10.25;6.90;;;;;;;23.07;71.80;100180.66;1442542;22;20179;-76
2021/07/10 05:17:39;;;;;;;15.68;6.88;;;;;;;24.21;69.31;100184.66;3596610;40;20076;-70
2021/07/10 05:20:13;;;;;;;11.32;6.50;;;;;;;24.01;68.95;100187.06;3599333;40;20028;-70
2021/07/10 05:22:39;;;;;;;10.68;6.80;;;;;;;23.83;68.91;100185.94;3600138;40;20399;-70
2021/07/10 05:27:59;;;;;;;11.05;6.80;;;;;;;24.47;67.00;100193.75;3708405;22;20046;-72
2021/07/10 05:35:38;;;;;;;10.45;7.80;;;;;;;23.92;69.12;100200.81;3769332;22;20272;-72
2021/07/10 05:38:05;;;;;;;10.73;6.78;;;;;;;23.95;67.97;100202.31;3835793;22;20104;-71
2021/07/10 05:48:52;;;;;;;8.52;5.18;;;;;;;24.22;64.63;100212.31;1290368;22;20058;-72
2021/07/10 05:56:45;;;;;;;6.55;5.00;;;;;;;25.05;62.29;100216.66;3805984;22;20038;-72
2021/07/10 06:05:02;;;;;;;6.72;5.47;;;;;;;25.10;61.04;100230.09;1197764;22;21554;-74
2021/07/10 06:13:03;;;;;;;12.30;6.43;;;;;;;25.95;58.26;100226.16;3642531;39;20380;-70
2021/07/10 06:28:15;;;;;;;9.13;4.30;;;;;;;26.83;51.59;100223.50;3587612;39;20623;-73
2021/07/10 06:36:39;;;;;;;6.65;3.88;;;;;;;27.07;47.29;100226.47;3598261;40;20098;-69
2021/07/10 06:39:05;;;;;;;5.45;3.53;;;;;;;26.64;46.89;100227.75;3598516;40;20384;-70
2021/07/10 06:41:30;;;;;;;5.70;3.15;;;;;;;27.05;46.08;100221.41;3589673;40;20132;-70
2021/07/10 06:43:56;;;;;;;6.82;3.80;;;;;;;27.44;46.52;100222.94;3599618;40;20033;-71
2021/07/10 06:49:16;;;;;;;4.65;3.30;;;;;;;27.30;44.46;100220.75;3650643;22;20064;-69
2021/07/10 06:54:11;;;;;;;7.28;3.60;;;;;;;27.57;46.43;100222.59;3609588;39;20028;-70
2021/07/10 06:56:36;;;;;;;7.97;4.32;;;;;;;27.12;45.27;100219.84;3609649;39;20036;-71
2021/07/10 06:59:02;;;;;;;5.03;3.28;;;;;;;27.36;44.75;100216.78;3610001;40;20530;-72
2021/07/10 07:01:27;;;;;;;6.65;3.25;;;;;;;26.92;45.46;100218.25;3608881;40;20529;-69
2021/07/10 07:06:22;;;;;;;5.50;3.58;;;;;;;28.28;43.07;100213.09;3599501;39;20064;-74
2021/07/10 07:19:50;;;;;;;4.53;2.75;;;;;;;29.25;39.48;100219.88;3597322;39;20119;-71
2021/07/10 07:22:16;;;;;;;4.68;2.55;;;;;;;28.72;37.78;100214.75;3596841;40;20381;-70
2021/07/10 07:24:41;;;;;;;6.72;2.83;;;;;;;28.57;37.87;100213.69;3590912;39;20041;-71
2021/07/10 07:27:07;;;;;;;3.35;2.50;;;;;;;28.56;38.69;100219.91;3594188;40;20034;-69
2021/07/10 07:29:33;;;;;;;3.63;2.78;;;;;;;28.98;39.95;100220.84;3603215;40;20403;-70
2021/07/10 07:31:58;;;;;;;3.30;2.58;;;;;;;28.11;39.69;100224.34;3602632;40;20299;-71
2021/07/10 07:36:53;;;;;;;4.18;2.72;;;;;;;28.50;39.69;100220.47;3612473;39;20043;-72
2021/07/10 07:39:18;;;;;;;5.47;3.28;;;;;;;28.82;39.71;100222.53;3613324;39;20036;-71
2021/07/10 07:41:43;;;;;;;5.63;2.80;;;;;;;28.38;39.23;100215.63;3613110;39;20028;-72
2021/07/10 07:46:38;;;;;;;5.05;2.70;;;;;;;29.51;37.22;100204.94;3601785;40;20350;-72
2021/07/10 07:49:04;;;;;;;9.48;2.92;;;;;;;29.05;36.56;100216.63;3602471;40;20025;-71
2021/07/10 07:51:30;;;;;;;5.88;3.00;;;;;;;29.29;36.30;100208.13;3602717;40;20017;-71
2021/07/10 07:53:55;;;;;;;4.55;2.67;;;;;;;28.98;37.25;100214.78;3593580;40;20063;-70
2021/07/10 07:56:22;;;;;;;3.75;2.40;;;;;;;28.96;36.36;100212.31;3593944;40;20376;-73
2021/07/10 07:58:47;;;;;;;4.43;2.45;;;;;;;29.73;36.37;100212.22;3602351;40;20419;-70
2021/07/10 08:01:13;;;;;;;6.60;2.78;;;;;;;30.10;35.23;100211.84;3601722;40;20040;-71
2021/07/10 08:03:38;;;;;;;4.13;2.58;;;;;;;29.57;34.20;100211.34;3602704;40;20033;-71
2021/07/10 08:06:04;;;;;;;3.38;2.60;;;;;;;30.29;32.83;100208.91;3593031;40;20023;-71
2021/07/10 08:08:30;;;;;;;4.38;2.42;;;;;;;29.72;33.44;100215.84;3602454;40;20036;-72
2021/07/10 08:13:24;;;;;;;6.10;2.92;;;;;;;30.37;33.06;100208.09;3592198;40;20424;-70
2021/07/10 08:15:50;;;;;;;4.60;3.00;;;;;;;30.73;32.50;100202.34;3583547;40;20036;-70
2021/07/10 08:18:15;;;;;;;4.85;2.45;;;;;;;30.93;29.86;100205.47;3592135;39;20037;-71
2021/07/10 08:20:41;;;;;;;2.67;1.80;;;;;;;30.05;29.72;100208.84;3592205;40;20293;-71
2021/07/10 08:23:07;;;;;;;2.35;1.92;;;;;;;30.07;28.26;100206.88;3591764;40;20029;-72
2021/07/10 08:25:32;;;;;;;3.53;1.60;;;;;;;30.63;28.29;100203.50;3582168;40;20054;-71
2021/07/10 08:27:58;;;;;;;3.28;2.00;;;;;;;30.46;28.31;100194.81;3592164;40;20044;-72
2021/07/10 08:30:24;;;;;;;4.82;1.80;;;;;;;31.16;27.27;100193.22;3591424;40;20025;-71
2021/07/10 08:32:50;;;;;;;2.67;1.63;;;;;;;30.50;26.77;100193.50;3591917;40;20047;-72
2021/07/10 08:35:17;;;;;;;3.35;1.70;;;;;;;31.29;25.81;100192.69;3590960;40;20038;-71
2021/07/10 08:37:43;;;;;;;5.63;1.70;;;;;;;30.90;25.73;100195.31;3583331;40;20065;-69
2021/07/10 08:40:11;;;;;;;2.17;1.70;;;;;;;30.82;25.98;100191.81;3591347;40;20028;-72
2021/07/10 08:45:09;;;;;;;2.88;1.70;;;;;;;30.68;27.77;100188.88;3591051;40;20052;-72
2021/07/10 08:47:36;;;;;;;6.13;2.00;;;;;;;30.26;29.64;100190.03;3591271;40;20028;-71
2021/07/10 08:50:06;;;;;;;2.85;1.90;;;;;;;29.99;29.20;100196.38;3590293;40;20037;-71
2021/07/10 08:52:34;;;;;;;6.25;2.28;;;;;;;30.37;28.66;100187.91;3590934;40;20087;-72
2021/07/10 08:55:01;;;;;;;3.60;2.15;;;;;;;30.50;30.09;100185.63;3590703;40;20435;-71
2021/07/10 08:57:26;;;;;;;6.07;1.95;;;;;;;31.73;28.78;100179.88;3587856;40;20057;-71
2021/07/10 08:59:52;;;;;;;6.97;1.70;;;;;;;30.29;28.61;100184.47;3591229;40;20037;-71
2021/07/10 09:02:17;;;;;;;4.03;2.00;;;;;;;31.15;28.10;100175.84;3592153;40;20039;-69
2021/07/10 09:04:43;;;;;;;3.20;2.00;;;;;;;31.81;28.70;100175.38;3591966;40;20032;-71
2021/07/10 09:07:08;;;;;;;3.88;1.90;;;;;;;32.11;28.73;100179.78;3591384;40;20033;-72
2021/07/10 09:09:42;;;;;;;4.40;1.95;;;;;;;32.16;28.61;100180.09;3592058;39;20045;-71
2021/07/10 09:12:08;;;;;;;3.25;1.60;;;;;;;31.71;26.83;100177.41;3592049;40;20069;-71
2021/07/10 09:14:34;;;;;;;4.72;2.17;;;;;;;31.72;27.00;100178.22;3592195;40;20083;-72
2021/07/10 09:17:20;;;;;;;4.18;2.15;;;;;;;31.05;28.03;100184.91;3591734;40;20420;-71
2021/07/10 09:19:47;;;;;;;7.03;2.22;;;;;;;32.57;28.70;100171.84;3592176;40;20041;-71
2021/07/10 09:22:24;;;;;;;4.13;1.70;;;;;;;32.17;27.41;100165.13;3591768;40;20021;-71
2021/07/10 09:24:50;;;;;;;5.07;2.30;;;;;;;31.58;28.96;100172.72;3591875;40;20083;-69
2021/07/10 09:27:16;;;;;;;5.00;2.40;;;;;;;31.16;28.72;100180.09;3591357;40;20072;-72
2021/07/10 09:29:44;;;;;;;4.60;2.00;;;;;;;30.79;29.03;100169.34;3591971;39;20029;-71
2021/07/10 09:32:12;;;;;;;4.90;1.92;;;;;;;31.41;29.01;100178.22;3591447;40;20040;-71
2021/07/10 09:34:43;;;;;;;4.70;2.20;;;;;;;31.05;29.02;100171.75;3591418;40;20040;-71
2021/07/10 09:37:12;;;;;;;6.15;2.20;;;;;;;30.64;28.75;100169.19;3591565;40;20155;-71
2021/07/10 09:39:43;;;;;;;3.25;2.00;;;;;;;30.86;28.66;100174.78;3591917;40;20037;-72
2021/07/10 09:42:13;;;;;;;4.70;2.10;;;;;;;31.07;30.40;100167.97;3591836;40;20023;-72
2021/07/10 09:47:31;;;;;;;3.97;2.10;;;;;;;30.67;28.70;100174.13;3593075;39;20159;-70
2021/07/10 09:49:59;;;;;;;5.78;1.95;;;;;;;30.91;29.53;100159.31;3601535;40;20029;-71
2021/07/10 09:52:28;;;;;;;4.88;1.95;;;;;;;31.13;30.25;100169.94;3611404;40;20039;-70
2021/07/10 09:55:04;;;;;;;8.95;2.15;;;;;;;31.00;29.09;100159.13;3601816;40;20445;-70
2021/07/10 09:57:32;;;;;;;5.20;2.03;;;;;;;31.56;28.78;100156.28;3611537;40;20040;-71
2021/07/10 10:00:08;;;;;;;5.15;1.92;;;;;;;32.11;29.04;100158.72;3611804;40;20276;-71
2021/07/10 10:02:41;;;;;;;4.78;1.75;;;;;;;32.23;28.66;100146.78;3611095;40;20044;-73
2021/07/10 10:05:10;;;;;;;4.22;1.90;;;;;;;31.66;29.51;100148.16;3610486;40;20028;-72
2021/07/10 10:07:44;;;;;;;5.47;2.15;;;;;;;31.62;29.64;100149.50;3611268;40;20032;-71
2021/07/10 10:10:21;;;;;;;6.47;2.28;;;;;;;31.89;28.38;100145.56;3611125;39;20056;-70
2021/07/10 10:13:05;;;;;;;6.07;2.10;;;;;;;31.15;29.99;100140.84;3611173;40;20423;-73
2021/07/10 10:15:31;;;;;;;6.93;2.00;;;;;;;32.16;30.17;100135.34;3611218;40;20032;-71
2021/07/10 10:17:57;;;;;;;3.88;1.70;;;;;;;31.49;29.55;100134.31;3610211;40;20040;-71
2021/07/10 10:20:23;;;;;;;2.92;1.80;;;;;;;31.88;28.94;100130.75;3611690;40;20032;-72
2021/07/10 10:25:18;;;;;;;8.80;2.55;;;;;;;32.33;29.18;100128.91;3610527;39;20065;-72
2021/07/10 10:30:15;;;;;;;3.58;2.03;;;;;;;32.15;29.19;100123.16;3610508;40;20036;-71
2021/07/10 10:32:43;;;;;;;8.60;2.15;;;;;;;31.83;30.47;100131.28;3610393;40;20039;-73
2021/07/10 10:35:08;;;;;;;5.07;2.05;;;;;;;31.66;29.90;100126.28;3610763;40;20058;-72
2021/07/10 10:37:36;;;;;;;5.05;2.35;;;;;;;32.38;29.19;100121.31;3610948;40;20350;-71
2021/07/10 10:40:07;;;;;;;4.45;2.20;;;;;;;32.33;29.36;100115.75;3611102;40;20028;-71
2021/07/10 10:42:32;;;;;;;5.63;2.40;;;;;;;32.52;28.78;100118.91;3600983;40;20119;-71
2021/07/10 10:45:00;;;;;;;9.45;2.22;;;;;;;32.53;29.23;100117.88;3611560;40;20040;-73
2021/07/10 10:47:45;;;;;;;5.70;2.08;;;;;;;32.11;29.40;100110.56;3611601;39;20024;-71
2021/07/10 10:50:18;;;;;;;6.85;2.20;;;;;;;32.70;28.73;100104.38;3611970;39;20028;-72
2021/07/10 10:52:48;;;;;;;6.05;2.38;;;;;;;33.02;28.84;100103.22;3611172;40;20036;-71
2021/07/10 10:55:17;;;;;;;2.88;2.00;;;;;;;32.52;29.14;100114.47;3610965;40;20052;-73
2021/07/10 10:57:52;;;;;;;3.38;1.80;;;;;;;32.36;28.69;100096.97;3619358;39;20212;-72
2021/07/10 11:00:23;;;;;;;2.50;2.10;;;;;;;32.22;29.47;100097.78;3612946;40;20403;-72
2021/07/10 11:02:49;;;;;;;4.15;2.03;;;;;;;32.85;29.73;100105.19;3612895;40;20028;-73
2021/07/10 11:05:15;;;;;;;8.18;2.15;;;;;;;33.43;28.97;100091.13;3613086;40;20447;-71
2021/07/10 11:10:15;;;;;;;7.13;2.08;;;;;;;33.06;29.44;100099.22;3612330;40;20032;-71
2021/07/10 11:12:50;;;;;;;3.80;2.20;;;;;;;32.62;29.45;100099.22;3613096;40;20036;-73
2021/07/10 11:15:24;;;;;;;7.07;2.13;;;;;;;33.31;27.86;100084.69;3612650;39;20036;-72
2021/07/10 11:17:49;;;;;;;3.00;1.65;;;;;;;32.49;28.62;100093.75;3611774;40;20029;-71
2021/07/10 11:20:40;;;;;;;3.70;1.90;;;;;;;33.31;27.23;100089.97;3611479;40;20039;-73
2021/07/10 11:23:06;;;;;;;;;;;;;;;32.97;28.53;100087.13;3613046;40;20060;-71
2021/07/10 11:25:50;;;;;;;5.75;1.90;;;;;;;32.88;28.08;100078.47;3611840;40;19939;-71
2021/07/10 11:28:21;;;;;;;3.85;2.00;;;;;;;33.39;27.86;100070.56;3612097;40;20028;-71
2021/07/10 11:30:49;;;;;;;3.58;2.10;;;;;;;32.25;28.71;100076.34;3612648;40;20025;-73
2021/07/10 11:33:15;;;;;;;3.78;2.08;;;;;;;32.18;28.98;100075.44;3602074;40;20040;-69
2021/07/10 11:35:46;;;;;;;7.03;2.10;;;;;;;33.24;28.41;100062.69;3612419;40;20504;-71
2021/07/10 11:38:49;;;;;;;6.13;2.75;;;;;;;32.80;29.33;100068.03;3612325;40;20028;-71
2021/07/10 11:41:27;;;;;;;2.67;2.10;;;;;;;33.02;29.08;100058.41;3612871;40;20045;-72
2021/07/10 11:44:11;;;;;;;5.35;2.38;;;;;;;32.22;29.41;100066.19;3612115;40;20028;-70
2021/07/10 11:46:55;;;;;;;6.55;2.30;;;;;;;33.19;28.85;100062.44;3603815;39;20031;-72
2021/07/10 11:49:35;;;;;;;3.40;2.38;;;;;;;32.28;29.50;100068.09;3612620;40;20032;-69
2021/07/10 11:52:22;;;;;;;6.28;2.17;;;;;;;33.38;29.23;100053.13;3613047;39;20302;-70
2021/07/10 11:54:56;;;;;;;7.57;2.40;;;;;;;32.74;29.17;100050.34;3612272;40;20016;-72
2021/07/10 11:57:25;;;;;;;6.35;3.85;;;;;;;32.46;28.74;100046.72;3611980;40;20077;-71
2021/07/10 11:59:52;;;;;;;10.13;4.70;;;;;;;33.02;29.32;100042.59;3611486;40;20276;-71
2021/07/10 12:02:22;;;;;;;7.35;3.42;;;;;;;32.77;29.34;100049.13;3611233;40;20387;-69
2021/07/10 12:05:15;;;;;;;4.13;2.57;;;;;;;32.23;29.20;100045.91;3611504;40;20117;-71
2021/07/10 12:13:41;;;;;;;4.18;2.45;;;;;;;31.79;30.37;100042.38;3602876;39;20095;-74
2021/07/10 12:16:08;;;;;;;5.88;2.63;;;;;;;32.12;30.07;100043.72;3600190;40;20032;-73
2021/07/10 12:18:35;;;;;;;4.88;2.50;;;;;;;33.22;28.36;100031.25;3602092;40;20467;-72
2021/07/10 12:21:08;;;;;;;5.63;2.38;;;;;;;33.06;28.80;100035.94;3602239;40;20028;-69
2021/07/10 12:23:38;;;;;;;5.70;2.50;;;;;;;33.07;28.68;100040.19;3602198;40;20057;-71
2021/07/10 12:26:09;;;;;;;4.78;2.25;;;;;;;32.73;29.03;100032.88;3581659;40;20026;-72
2021/07/10 12:28:49;;;;;;;2.60;2.03;;;;;;;33.52;29.27;100039.88;3581917;40;20512;-71
2021/07/10 12:31:21;;;;;;;5.37;2.70;;;;;;;32.45;29.65;100045.06;3581337;40;20048;-72
2021/07/10 12:33:53;;;;;;;4.22;2.30;;;;;;;31.92;29.92;100038.16;3580978;40;20389;-70
2021/07/10 12:36:20;;;;;;;5.28;2.63;;;;;;;32.45;29.58;100028.47;3572493;40;20612;-71
2021/07/10 12:38:55;;;;;;;3.38;2.70;;;;;;;32.49;30.14;100032.38;3581410;40;20032;-73
2021/07/10 12:41:28;;;;;;;5.40;2.40;;;;;;;32.40;30.97;100024.53;3572633;40;20030;-69
2021/07/10 12:44:04;;;;;;;6.78;2.55;;;;;;;33.63;28.72;100025.38;3571466;40;20066;-71
2021/07/10 12:46:45;;;;;;;5.38;2.47;;;;;;;33.06;28.91;100025.41;3579788;40;20040;-71
2021/07/10 12:49:11;;;;;;;2.42;1.95;;;;;;;33.66;28.73;100031.09;3580923;40;20030;-73
2021/07/10 12:51:37;;;;;;;7.97;2.40;;;;;;;34.06;27.82;100043.63;3572427;40;20025;-71
2021/07/10 12:54:08;;;;;;;4.53;2.50;;;;;;;33.24;28.79;100026.59;3581025;40;20025;-71
2021/07/10 12:56:42;;;;;;;4.00;2.90;;;;;;;32.36;30.06;100025.06;3580392;40;20025;-72
2021/07/10 12:59:08;;;;;;;5.20;2.50;;;;;;;32.54;29.43;100024.72;3581283;40;20033;-72
2021/07/10 13:01:34;;;;;;;3.83;2.70;;;;;;;32.86;29.73;100019.84;3580842;40;20427;-71
2021/07/10 13:03:59;;;;;;;5.57;2.55;;;;;;;32.81;28.97;100013.50;3596132;40;20053;-72
2021/07/10 13:06:25;;;;;;;4.45;2.20;;;;;;;32.48;29.78;100007.00;3600427;40;20548;-71
2021/07/10 13:08:56;;;;;;;4.68;2.40;;;;;;;32.84;30.26;100003.41;3599789;40;20043;-71
2021/07/10 13:11:23;;;;;;;6.03;2.47;;;;;;;33.27;30.42;99996.41;3600040;40;20041;-72
2021/07/10 13:16:31;;;;;;;5.32;2.28;;;;;;;33.01;29.93;100004.03;3609863;40;20100;-71
2021/07/10 13:18:59;;;;;;;4.55;2.85;;;;;;;33.38;29.64;100003.00;3598018;40;20013;-76
2021/07/10 13:21:27;;;;;;;6.15;2.70;;;;;;;32.53;30.82;100000.19;3600202;40;20102;-75
2021/07/10 13:24:10;;;;;;;5.15;2.97;;;;;;;32.55;29.84;99997.38;3590754;40;20033;-71
2021/07/10 13:26:54;;;;;;;4.53;2.40;;;;;;;31.80;31.04;99991.38;3600259;40;20071;-71
2021/07/10 13:29:28;;;;;;;6.40;2.45;;;;;;;33.04;29.72;99982.59;3600970;40;20020;-71
2021/07/10 13:32:00;;;;;;;4.32;2.53;;;;;;;32.17;30.50;99988.75;3591565;40;20041;-70
2021/07/10 13:34:31;;;;;;;4.50;2.80;;;;;;;32.17;30.43;99986.91;3600058;40;20037;-70
2021/07/10 13:37:15;;;;;;;;;;;;;;;32.49;30.21;99974.41;3600005;40;20029;-74
2021/07/10 13:39:42;;;;;;;9.20;2.63;;;;;;;32.36;30.30;99977.66;3600388;40;19940;-71
2021/07/10 13:42:10;;;;;;;6.97;2.85;;;;;;;32.68;30.32;99982.56;3600871;40;20028;-71
2021/07/10 13:44:42;;;;;;;6.65;2.50;;;;;;;32.92;29.31;99973.50;3591161;40;20068;-74
2021/07/10 13:47:25;;;;;;;4.53;2.60;;;;;;;33.00;29.98;99968.16;3599792;40;20039;-71
2021/07/10 13:49:54;;;;;;;4.20;2.40;;;;;;;32.91;28.55;99974.50;3601068;40;20068;-72
2021/07/10 13:52:22;;;;;;;3.75;2.42;;;;;;;32.65;28.08;99982.09;3601884;40;20033;-73
2021/07/10 13:54:54;;;;;;;4.63;2.20;;;;;;;33.08;28.18;99979.38;3602749;39;20463;-71
2021/07/10 13:57:33;;;;;;;4.10;2.15;;;;;;;32.32;28.82;99971.94;3602440;39;20086;-71
2021/07/10 14:00:08;;;;;;;3.95;2.35;;;;;;;33.09;28.58;99975.75;3600772;40;20079;-74
2021/07/10 14:03:08;;;;;;;5.07;2.20;;;;;;;32.25;29.12;99970.19;3600951;40;20049;-70
2021/07/10 14:05:35;;;;;;;3.03;2.50;;;;;;;33.47;28.63;99976.31;3542022;40;20482;-72
2021/07/10 14:08:10;;;;;;;4.10;2.53;;;;;;;31.96;29.50;99978.91;3549676;40;20043;-70
2021/07/10 14:10:41;;;;;;;6.95;2.38;;;;;;;32.47;29.75;99965.88;3549658;40;20034;-71
2021/07/10 14:13:18;;;;;;;2.95;2.40;;;;;;;32.36;30.67;99962.69;3549605;40;20043;-71
2021/07/10 14:15:49;;;;;;;4.60;2.70;;;;;;;32.34;29.66;99963.84;3548924;40;20035;-71
2021/07/10 14:18:15;;;;;;;4.60;2.55;;;;;;;32.53;30.45;99960.69;3554027;40;20042;-71
2021/07/10 14:20:45;;;;;;;4.03;2.50;;;;;;;32.18;30.93;99953.50;3549072;40;20505;-72
2021/07/10 14:23:11;;;;;;;3.22;2.67;;;;;;;32.17;31.14;99959.78;3548065;40;20043;-71
2021/07/10 14:25:36;;;;;;;4.57;2.90;;;;;;;32.87;31.69;99954.78;3548829;40;20062;-72
2021/07/10 14:28:03;;;;;;;3.95;3.00;;;;;;;32.22;32.45;99952.16;3548665;40;20046;-73
2021/07/10 14:30:30;;;;;;;4.93;3.10;;;;;;;32.49;31.88;99946.25;3548082;40;20038;-70
2021/07/10 14:32:57;;;;;;;6.95;3.10;;;;;;;32.82;31.82;99949.28;3547616;40;20449;-71
2021/07/10 14:35:24;;;;;;;4.40;2.90;;;;;;;32.59;32.32;99943.31;3549695;40;20045;-71
2021/07/10 14:37:52;;;;;;;6.53;3.13;;;;;;;32.34;31.67;99953.31;3549530;40;20047;-72
2021/07/10 14:40:19;;;;;;;4.72;3.28;;;;;;;32.28;33.04;99940.91;3540578;40;20090;-70
2021/07/10 14:42:47;;;;;;;5.68;3.05;;;;;;;32.19;33.13;99934.09;3599793;39;20043;-72
2021/07/10 14:45:15;;;;;;;7.82;3.28;;;;;;;32.95;31.60;99917.78;3597230;40;20024;-71
2021/07/10 14:47:44;;;;;;;5.40;3.42;;;;;;;32.23;33.06;99924.81;3610563;40;20039;-70
2021/07/10 14:50:13;;;;;;;4.78;3.40;;;;;;;32.22;32.32;99934.56;3610376;40;20040;-71
2021/07/10 14:52:39;;;;;;;6.07;3.50;;;;;;;32.55;32.79;99934.16;3598777;40;20407;-70
2021/07/10 14:55:06;;;;;;;4.25;3.40;;;;;;;32.55;33.22;99928.88;3608747;40;20382;-71
2021/07/10 14:57:32;;;;;;;4.50;3.60;;;;;;;32.29;34.10;99919.63;3604671;40;20028;-72
2021/07/10 14:59:58;;;;;;;7.63;3.45;;;;;;;32.41;33.80;99918.16;3596335;40;20046;-71
2021/07/10 15:02:23;;;;;;;7.18;3.88;;;;;;;31.58;35.25;99922.03;3607693;39;20032;-70
2021/07/10 15:04:52;;;;;;;7.50;3.72;;;;;;;32.06;34.78;99915.47;3608210;40;20032;-69
2021/07/10 15:07:19;;;;;;;6.43;3.78;;;;;;;32.13;34.91;99911.94;3607782;40;20083;-71
2021/07/10 15:09:45;;;;;;;5.78;3.60;;;;;;;32.44;33.24;99911.72;3589874;40;20033;-71
2021/07/10 15:12:10;;;;;;;8.43;3.72;;;;;;;31.75;34.77;99917.44;3600138;40;20422;-70
2021/07/10 15:14:38;;;;;;;7.05;3.38;;;;;;;31.54;34.90;99920.75;3591053;40;20037;-71
2021/07/10 15:17:04;;;;;;;7.82;3.80;;;;;;;31.99;34.51;99912.75;3599639;40;20441;-75
2021/07/10 15:19:30;;;;;;;6.28;3.50;;;;;;;31.30;34.79;99921.75;3602729;40;20036;-71
2021/07/10 15:21:56;;;;;;;6.65;3.47;;;;;;;31.62;34.07;99925.94;3601762;40;20043;-71
2021/07/10 15:24:22;;;;;;;11.13;3.60;;;;;;;32.07;33.93;99917.94;3610530;40;20036;-72
2021/07/10 15:26:49;;;;;;;8.25;3.63;;;;;;;31.38;34.11;99928.78;3610559;40;20064;-72
2021/07/10 15:29:16;;;;;;;6.50;3.28;;;;;;;31.61;33.68;99919.84;3611161;40;20385;-71
2021/07/10 15:31:44;;;;;;;4.70;3.30;;;;;;;31.98;32.06;99920.84;3611740;40;20032;-70
2021/07/10 15:34:10;;;;;;;5.00;3.55;;;;;;;31.76;32.92;99913.81;3610961;40;20052;-71
2021/07/10 15:36:36;;;;;;;9.98;3.50;;;;;;;31.94;32.69;99914.31;3601723;40;20512;-73
2021/07/10 15:39:03;;;;;;;6.65;3.47;;;;;;;31.55;33.54;99914.53;3602903;40;20044;-69
2021/07/10 15:41:31;;;;;;;6.88;3.80;;;;;;;32.29;32.15;99914.38;3602689;40;20091;-70
2021/07/10 15:43:56;;;;;;;8.95;3.40;;;;;;;31.19;34.00;99908.22;3612597;39;20036;-71
2021/07/10 15:46:22;;;;;;;5.85;3.40;;;;;;;31.60;33.46;99910.34;3613048;39;20423;-71
2021/07/10 15:57:09;;;;;;;6.88;3.60;;;;;;;31.37;34.58;99921.88;3601951;40;20040;-72
2021/07/10 15:59:37;;;;;;;8.75;3.38;;;;;;;31.33;33.52;99923.22;3600019;40;20033;-71
2021/07/10 16:02:03;;;;;;;11.50;3.53;;;;;;;31.34;33.74;99917.78;3600935;40;20366;-70
2021/07/10 16:14:25;;;;;;;7.07;3.17;;;;;;;31.19;35.15;99918.72;3612251;39;20056;-71
2021/07/10 16:19:20;;;;;;;5.55;3.38;;;;;;;31.48;34.00;99916.22;3611813;39;20029;-72
2021/07/10 16:24:15;;;;;;;10.10;3.20;;;;;;;30.78;34.30;99915.56;3673103;22;23232;-71
2021/07/10 16:26:47;;;;;;;8.98;3.60;;;;;;;30.82;34.76;99929.97;3619768;39;20028;-71
2021/07/10 16:31:42;;;;;;;5.88;3.08;;;;;;;30.86;35.19;99914.72;3599981;40;20127;-71
2021/07/10 16:34:08;;;;;;;9.70;4.00;;;;;;;31.11;34.67;99917.00;3598985;40;20037;-72
2021/07/10 16:39:05;;;;;;;11.35;3.53;;;;;;;31.02;35.38;99930.38;3594714;40;20080;-70
2021/07/10 16:41:36;;;;;;;10.73;3.53;;;;;;;30.80;35.39;99919.63;3595153;40;20461;-69
2021/07/10 16:44:02;;;;;;;9.18;3.60;;;;;;;30.83;35.91;99921.09;3597881;40;20045;-70
2021/07/10 16:46:28;;;;;;;5.38;3.53;;;;;;;30.46;36.79;99923.59;3596536;40;20049;-71
2021/07/10 16:48:53;;;;;;;9.80;3.40;;;;;;;30.75;35.41;99924.59;3598642;39;20260;-73
2021/07/10 16:51:20;;;;;;;9.98;3.50;;;;;;;30.60;35.86;99928.94;3597471;40;20032;-70
2021/07/10 16:53:46;;;;;;;8.00;3.55;;;;;;;30.71;36.16;99927.72;3599636;40;20141;-70
2021/07/10 16:56:18;;;;;;;7.35;3.92;;;;;;;30.61;36.08;99930.56;3597064;40;20411;-71
2021/07/10 16:58:44;;;;;;;6.93;3.35;;;;;;;30.37;37.16;99935.94;3597897;40;20037;-72
2021/07/10 17:03:39;;;;;;;6.95;3.65;;;;;;;30.16;37.59;99927.78;3596654;39;20120;-71
2021/07/10 17:06:04;;;;;;;9.20;3.65;;;;;;;29.97;37.35;99935.22;3595587;40;20037;-71
2021/07/10 17:08:30;;;;;;;8.48;3.88;;;;;;;30.12;37.76;99923.03;3592653;40;20036;-70
2021/07/10 17:11:01;;;;;;;8.02;3.60;;;;;;;29.99;38.32;99933.25;3585981;40;20032;-70
2021/07/10 17:13:29;;;;;;;6.90;3.42;;;;;;;29.92;38.21;99931.31;3598543;40;20056;-71
2021/07/10 17:18:27;;;;;;;8.23;3.88;;;;;;;29.77;38.51;99940.81;3701829;22;20075;-73
2021/07/10 17:23:47;;;;;;;11.98;4.15;;;;;;;29.47;40.65;99945.91;3754567;22;20123;-71
2021/07/10 17:28:43;;;;;;;16.48;4.38;;;;;;;29.23;41.44;99951.97;3593204;39;20476;-70
2021/07/10 17:31:21;;;;;;;13.80;4.45;;;;;;;28.90;41.81;99961.53;3596926;40;20025;-70
2021/07/10 17:49:13;;;;;;;9.52;4.15;;;;;;;28.36;42.89;99982.09;3711355;22;20039;-71
2021/07/10 17:51:43;;;;;;;13.30;4.22;;;;;;;28.49;43.30;99982.47;3640163;22;20405;-72